In Rescue
 
Open Full Screen Window  High Contrast Mode
Wind Gusting 00 knots
06
May 13, 2021 11:11 AM CDT
Weather Information
Wind Direction
  180 °
Wind Speed
  06 kt (7 mph)
Wind Gust
  00 kt (0 mph)
Altimeter
30.31 in
Visibility
10 SM
Temperature
20° C
68° F
Dewpoint
-01° C
30° F
Humidity
24%
1hr Rain Fall
00.00 in.
24hr Rain Fall
00.00 in.
Sky Condition
Clear
VFR

METAR KLJF 131611Z AUTO 18006KT 10SM CLR 20/M01 A3031 RMK AO2

FAA Disclaimer: The data displayed is for advisory purposes only and is not to be used for flight planning or operations.